Time;durP1;ratioP1;P1;durP2;ratioP2;P2;SDS_P1;SDS_P2;PMS_P1;PMS_P2;Temp;Humidity;BMP_temperature;BMP_pressure;BME280_temperature;BME280_humidity;BME280_pressure;Samples;Min_cycle;Max_cycle;Signal;HPM_P1;HPM_P2
2021/06/11 00:00:35;;;;;;;2.47;1.93;;;;;;;15.77;62.47;101080.13;5105761;27;20203;-69
2021/06/11 00:03:03;;;;;;;4.17;2.00;;;;;;;15.76;61.85;101082.97;5103882;27;20203;-69
2021/06/11 00:05:32;;;;;;;2.10;1.90;;;;;;;15.55;62.06;101047.69;5104568;27;20196;-70
2021/06/11 00:08:00;;;;;;;3.43;2.00;;;;;;;15.67;62.33;101084.63;5103570;27;20242;-70
2021/06/11 00:10:28;;;;;;;4.57;2.30;;;;;;;15.63;62.41;101076.88;5106449;27;20207;-70
2021/06/11 00:12:56;;;;;;;3.67;2.37;;;;;;;15.56;62.61;101081.03;5104858;28;20712;-70
2021/06/11 00:15:26;;;;;;;2.33;2.13;;;;;;;15.49;63.05;101086.09;5106167;28;20191;-70
2021/06/11 00:17:55;;;;;;;2.60;2.17;;;;;;;15.45;62.63;101082.78;5105444;28;20265;-70
2021/06/11 00:20:24;;;;;;;3.10;2.40;;;;;;;15.40;62.69;101078.75;5105756;28;20669;-70
2021/06/11 00:22:52;;;;;;;4.10;2.10;;;;;;;15.39;62.52;101080.59;5105681;28;20200;-70
2021/06/11 00:25:22;;;;;;;4.47;2.40;;;;;;;15.38;62.31;101080.72;5105588;28;20215;-69
2021/06/11 00:27:54;;;;;;;2.57;2.13;;;;;;;15.30;63.06;101075.91;5104875;28;20214;-69
2021/06/11 00:30:26;;;;;;;3.53;2.23;;;;;;;15.15;63.10;101069.94;5103639;28;20195;-70
2021/06/11 00:32:55;;;;;;;2.93;2.43;;;;;;;15.28;63.10;101086.00;5104861;27;20199;-70
2021/06/11 00:35:23;;;;;;;4.17;2.13;;;;;;;15.21;63.14;101080.25;5104632;28;20641;-70
2021/06/11 00:37:51;;;;;;;2.30;2.10;;;;;;;15.22;63.18;101081.97;5106999;28;20906;-69
2021/06/11 00:40:19;;;;;;;2.83;1.70;;;;;;;15.22;62.37;101079.25;5107813;28;20260;-70
2021/06/11 00:42:47;;;;;;;2.40;2.10;;;;;;;15.13;62.64;101074.63;5104856;28;20549;-70
2021/06/11 00:45:17;;;;;;;2.60;2.40;;;;;;;15.17;63.24;101081.50;5106100;28;20688;-70
2021/06/11 00:47:49;;;;;;;6.43;2.17;;;;;;;14.99;63.06;101055.94;5104759;28;20191;-70
2021/06/11 00:50:22;;;;;;;2.80;2.20;;;;;;;15.13;62.75;101074.63;5120070;27;20298;-70
2021/06/11 00:52:50;;;;;;;4.63;2.50;;;;;;;15.10;62.92;101074.88;5107476;28;20583;-70
2021/06/11 00:55:18;;;;;;;2.37;2.10;;;;;;;15.10;62.39;101076.72;5109129;27;20211;-70
2021/06/11 00:57:49;;;;;;;3.10;2.10;;;;;;;14.95;62.39;101059.00;5110971;27;20274;-69
2021/06/11 01:00:18;;;;;;;3.20;2.50;;;;;;;15.06;62.34;101072.53;5106897;27;20226;-70
2021/06/11 01:02:46;;;;;;;2.43;2.23;;;;;;;14.88;62.74;101047.84;5106914;27;20192;-70
2021/06/11 01:05:14;;;;;;;4.77;2.50;;;;;;;15.01;62.20;101080.19;5106415;27;20763;-70
2021/06/11 01:07:47;;;;;;;7.33;2.50;;;;;;;14.97;63.12;101076.84;5108179;27;20203;-69
2021/06/11 01:10:17;;;;;;;2.83;2.40;;;;;;;14.92;63.23;101081.75;5108719;27;20826;-70
2021/06/11 01:12:45;;;;;;;4.43;2.70;;;;;;;14.82;63.41;101076.25;5104904;27;20208;-70
2021/06/11 01:15:13;;;;;;;2.57;2.37;;;;;;;14.84;63.61;101081.53;5107419;27;20312;-70
2021/06/11 01:17:41;;;;;;;2.50;2.07;;;;;;;14.60;63.59;101050.06;5107558;27;20677;-69
2021/06/11 01:20:12;;;;;;;2.63;2.20;;;;;;;14.76;63.78;101079.44;5123156;27;20219;-70
2021/06/11 01:23:23;;;;;;;3.97;2.77;;;;;;;14.72;64.43;101077.97;5108046;27;20218;-70
2021/06/11 01:25:57;;;;;;;2.60;2.03;;;;;;;14.56;63.61;101067.50;5063582;28;20205;-69
2021/06/11 01:28:27;;;;;;;2.50;2.30;;;;;;;14.55;63.40;101068.47;5100619;27;20211;-69
2021/06/11 01:30:59;;;;;;;2.57;2.37;;;;;;;14.48;63.27;101052.88;5106255;27;20195;-70
2021/06/11 01:33:30;;;;;;;2.60;2.30;;;;;;;14.67;63.46;101082.84;5107003;27;20184;-70
2021/06/11 01:36:02;;;;;;;2.87;2.53;;;;;;;14.67;63.49;101076.59;5104691;27;20212;-70
2021/06/11 01:38:42;;;;;;;2.83;2.40;;;;;;;14.66;63.29;101080.28;5104079;27;20207;-70
2021/06/11 01:41:12;;;;;;;5.83;2.40;;;;;;;14.66;63.23;101074.88;5105745;28;20204;-70
2021/06/11 01:43:50;;;;;;;2.97;2.47;;;;;;;14.63;63.70;101075.97;5105848;27;20219;-69
2021/06/11 01:46:20;;;;;;;2.20;2.00;;;;;;;14.55;62.77;101068.47;5105265;27;20199;-70
2021/06/11 01:48:49;;;;;;;11.33;2.60;;;;;;;14.55;63.55;101073.03;5106407;27;20592;-70
2021/06/11 01:51:18;;;;;;;2.67;2.37;;;;;;;14.46;64.95;101074.63;5106208;27;20207;-69
2021/06/11 01:53:48;;;;;;;2.67;2.27;;;;;;;14.42;64.85;101073.13;5106288;27;20225;-69
2021/06/11 01:56:19;;;;;;;3.07;2.43;;;;;;;14.23;64.93;101052.06;5106726;27;20194;-70
2021/06/11 01:58:49;;;;;;;2.90;2.23;;;;;;;14.33;65.01;101072.94;5106169;27;20650;-70
2021/06/11 02:01:17;;;;;;;2.47;2.23;;;;;;;14.36;64.56;101076.28;5106748;27;20209;-69
2021/06/11 02:03:46;;;;;;;2.57;2.37;;;;;;;14.37;64.61;101072.59;5106491;27;20724;-68
2021/06/11 02:06:17;;;;;;;2.40;2.20;;;;;;;14.36;64.69;101073.56;5104937;27;20191;-69
2021/06/11 02:08:46;;;;;;;2.70;2.40;;;;;;;14.38;64.37;101070.75;5106915;27;20210;-69
2021/06/11 02:11:14;;;;;;;7.53;2.60;;;;;;;14.39;64.39;101072.47;5106202;27;20211;-69
2021/06/11 02:13:46;;;;;;;3.30;2.33;;;;;;;14.41;63.81;101071.38;5121626;27;20233;-70
2021/06/11 02:16:20;;;;;;;3.17;2.40;;;;;;;14.19;64.44;101039.78;5105334;27;20214;-69
2021/06/11 02:18:49;;;;;;;2.97;2.50;;;;;;;14.03;64.66;101016.78;5105294;27;20215;-69
2021/06/11 02:21:18;;;;;;;5.90;3.10;;;;;;;14.26;66.10;101067.16;5103768;27;20214;-69
2021/06/11 02:23:45;;;;;;;3.10;2.57;;;;;;;14.30;66.02;101068.66;5106825;27;20257;-69
2021/06/11 02:26:15;;;;;;;4.57;2.63;;;;;;;14.38;65.44;101082.41;5105072;27;20204;-70
2021/06/11 02:28:44;;;;;;;4.83;3.17;;;;;;;14.45;66.23;101067.50;5105630;27;20188;-68
2021/06/11 02:31:13;;;;;;;2.70;2.50;;;;;;;14.41;66.07;101044.38;5106124;27;20696;-69
2021/06/11 02:33:42;;;;;;;3.90;2.30;;;;;;;14.87;66.97;101056.94;5104684;27;20682;-70
2021/06/11 02:36:10;;;;;;;2.83;2.47;;;;;;;15.36;67.52;101042.09;5107534;27;20215;-69
2021/06/11 02:38:38;;;;;;;2.90;2.30;;;;;;;16.14;66.78;101056.19;5105252;27;20207;-69
2021/06/11 02:41:07;;;;;;;3.53;2.83;;;;;;;16.90;65.71;101064.06;5105289;27;20281;-68
2021/06/11 02:43:39;;;;;;;4.17;2.43;;;;;;;17.64;64.33;101059.09;5122428;27;20566;-69
2021/06/11 02:46:12;;;;;;;2.40;2.20;;;;;;;18.34;62.63;101049.75;5106662;27;20264;-70
2021/06/11 02:48:46;;;;;;;2.70;2.50;;;;;;;19.14;60.95;101056.53;5105865;27;20670;-70
2021/06/11 02:51:22;;;;;;;2.47;2.03;;;;;;;19.79;59.14;101046.34;5105579;27;20210;-68
2021/06/11 02:53:51;;;;;;;2.50;2.30;;;;;;;20.35;57.43;101037.78;5105020;27;20856;-68
2021/06/11 02:56:21;;;;;;;2.60;2.40;;;;;;;21.09;55.51;101048.09;5107254;27;20682;-69
2021/06/11 02:58:54;;;;;;;4.10;2.90;;;;;;;21.38;53.39;101035.94;5105323;27;21853;-70
2021/06/11 03:01:23;;;;;;;4.33;3.10;;;;;;;21.55;51.61;101054.09;5120601;27;20239;-70
2021/06/11 03:03:53;;;;;;;2.67;2.40;;;;;;;21.43;51.55;101038.16;5101733;27;20628;-70
2021/06/11 03:06:23;;;;;;;2.53;2.33;;;;;;;21.27;51.68;101048.03;5105317;27;20667;-70
2021/06/11 03:08:52;;;;;;;4.97;2.70;;;;;;;21.13;51.96;101043.19;5101332;27;20455;-69
2021/06/11 03:11:29;;;;;;;4.57;2.53;;;;;;;21.06;52.82;101045.69;5102984;27;20202;-70
2021/06/11 03:13:57;;;;;;;2.37;2.17;;;;;;;21.18;51.72;101043.53;5102877;27;20252;-70
2021/06/11 03:16:27;;;;;;;4.97;2.43;;;;;;;21.17;52.41;101047.31;5098944;27;21036;-70
2021/06/11 03:19:02;;;;;;;2.93;2.60;;;;;;;21.14;52.16;101044.91;5101007;27;20833;-70
2021/06/11 03:21:33;;;;;;;2.87;2.60;;;;;;;20.90;52.34;101047.53;5102829;27;20256;-70
2021/06/11 03:24:05;;;;;;;2.67;2.47;;;;;;;20.49;53.74;101043.69;5104789;27;20204;-70
2021/06/11 03:26:40;;;;;;;4.00;2.70;;;;;;;20.05;54.61;101014.56;5103746;27;20256;-70
2021/06/11 03:29:11;;;;;;;3.33;2.80;;;;;;;20.07;54.94;101038.94;5105568;27;20203;-70
2021/06/11 03:31:46;;;;;;;3.97;2.70;;;;;;;19.98;55.38;101042.63;5107094;27;20704;-70
2021/06/11 03:34:22;;;;;;;2.97;2.67;;;;;;;19.82;56.44;101043.31;5104996;28;20773;-70
2021/06/11 03:36:51;;;;;;;3.37;2.93;;;;;;;19.72;56.41;101042.53;5104499;28;20191;-69
2021/06/11 03:39:22;;;;;;;3.30;3.00;;;;;;;19.67;57.18;101053.06;5106295;27;20670;-69
2021/06/11 03:41:50;;;;;;;3.23;2.90;;;;;;;19.39;57.11;101016.81;5104813;27;20647;-69
2021/06/11 03:44:18;;;;;;;3.30;3.00;;;;;;;19.35;57.84;101048.09;5106546;28;20567;-69
2021/06/11 03:46:48;;;;;;;3.33;3.03;;;;;;;19.05;59.05;101049.28;5104797;27;20807;-69
2021/06/11 03:49:21;;;;;;;5.10;3.03;;;;;;;18.88;59.88;101045.47;5105865;28;20222;-69
2021/06/11 03:51:51;;;;;;;4.73;2.80;;;;;;;18.83;60.43;101048.66;5105823;27;20597;-69
2021/06/11 03:54:20;;;;;;;4.40;2.50;;;;;;;18.76;60.48;101038.50;5105495;28;20216;-69
2021/06/11 03:56:51;;;;;;;2.93;2.60;;;;;;;18.72;60.42;101040.69;5106393;27;20195;-69
2021/06/11 03:59:21;;;;;;;4.30;3.00;;;;;;;18.41;62.86;101044.63;5105120;27;20207;-70
2021/06/11 04:01:51;;;;;;;5.60;3.33;;;;;;;18.24;63.95;101044.34;5104524;27;20662;-69
2021/06/11 04:04:20;;;;;;;3.83;3.10;;;;;;;18.16;63.57;101043.38;5105817;27;20195;-69
2021/06/11 04:06:51;;;;;;;4.17;3.30;;;;;;;18.06;64.75;101046.13;5104098;27;20265;-69
2021/06/11 04:09:23;;;;;;;4.33;3.27;;;;;;;18.15;65.15;101044.38;5107230;28;20696;-69
2021/06/11 04:11:56;;;;;;;4.57;3.53;;;;;;;18.26;65.80;101045.06;5104695;27;20241;-68
2021/06/11 04:14:26;;;;;;;4.17;3.50;;;;;;;18.38;66.12;101043.06;5104576;27;20236;-69
2021/06/11 04:16:58;;;;;;;5.13;4.00;;;;;;;18.38;65.74;101042.19;5103718;28;20512;-69
2021/06/11 04:19:33;;;;;;;6.93;4.50;;;;;;;18.51;65.71;101042.72;5105346;27;20282;-69
2021/06/11 04:22:04;;;;;;;5.53;3.93;;;;;;;18.58;63.64;101022.06;5105296;28;20197;-69
2021/06/11 04:24:37;;;;;;;10.43;4.60;;;;;;;18.77;63.72;101035.66;5103109;28;20203;-70
2021/06/11 04:27:07;;;;;;;5.63;4.60;;;;;;;18.89;61.84;101030.84;5104320;28;20527;-69
2021/06/11 04:29:35;;;;;;;5.87;4.20;;;;;;;18.94;62.63;101033.97;5102463;28;20739;-69
2021/06/11 04:32:04;;;;;;;5.70;4.47;;;;;;;18.95;63.21;101035.69;5103138;28;20196;-70
2021/06/11 04:34:33;;;;;;;6.57;4.43;;;;;;;18.98;64.11;101029.97;5099833;28;20541;-69
2021/06/11 04:37:01;;;;;;;7.90;4.10;;;;;;;18.97;63.80;101011.03;5102039;28;20212;-69
2021/06/11 04:39:28;;;;;;;5.27;3.47;;;;;;;19.14;64.29;101030.16;5102132;28;20203;-69
2021/06/11 04:41:56;;;;;;;6.20;3.30;;;;;;;19.20;64.04;101029.53;5105200;28;20205;-69
2021/06/11 04:44:24;;;;;;;4.23;3.50;;;;;;;19.23;63.16;101020.19;5101054;28;20196;-69
2021/06/11 04:46:52;;;;;;;4.00;3.13;;;;;;;19.26;63.61;101014.44;5103407;28;20689;-71
2021/06/11 04:49:19;;;;;;;3.70;3.33;;;;;;;19.30;61.53;101007.72;5099883;28;20299;-70
2021/06/11 04:51:48;;;;;;;5.60;3.30;;;;;;;19.35;61.60;101016.25;5106101;28;20219;-70
2021/06/11 04:54:16;;;;;;;4.43;3.37;;;;;;;19.49;60.99;101029.34;5105482;28;20193;-70
2021/06/11 04:56:44;;;;;;;4.17;3.23;;;;;;;19.44;62.01;101003.56;5105400;28;20597;-71
2021/06/11 04:59:12;;;;;;;3.80;3.50;;;;;;;19.75;61.74;101012.25;5106188;28;20184;-71
2021/06/11 05:01:39;;;;;;;4.60;3.83;;;;;;;20.03;61.11;101021.19;5103955;28;20736;-71
2021/06/11 05:04:07;;;;;;;6.00;3.90;;;;;;;19.99;62.74;100987.91;5105217;28;20279;-72
2021/06/11 05:06:35;;;;;;;4.93;3.60;;;;;;;20.37;62.95;101030.28;5093817;28;20201;-71
2021/06/11 05:09:04;;;;;;;4.40;3.70;;;;;;;20.61;61.96;101013.25;5100355;28;20196;-71
2021/06/11 05:11:32;;;;;;;4.47;4.03;;;;;;;20.80;60.76;101005.81;5096619;28;20207;-72
2021/06/11 05:14:00;;;;;;;4.73;4.00;;;;;;;21.13;60.65;101018.59;5104386;28;20219;-70
2021/06/11 05:16:28;;;;;;;6.17;4.53;;;;;;;21.30;61.16;101014.06;5105024;28;20426;-70
2021/06/11 05:18:56;;;;;;;6.20;4.57;;;;;;;21.49;60.50;101005.56;5105511;28;20196;-71
2021/06/11 05:21:23;;;;;;;5.80;4.63;;;;;;;21.74;60.46;101014.66;5103067;28;20196;-70
2021/06/11 05:23:51;;;;;;;7.13;4.70;;;;;;;22.01;58.40;101008.81;5103716;28;20204;-72
2021/06/11 05:26:20;;;;;;;6.43;4.57;;;;;;;22.33;57.00;101007.13;5104382;28;21010;-70
2021/06/11 05:28:48;;;;;;;6.27;4.13;;;;;;;22.72;54.17;101004.47;5100003;28;20206;-71
2021/06/11 05:31:15;;;;;;;8.60;5.20;;;;;;;22.90;55.17;100996.03;5101819;28;20605;-71
2021/06/11 05:33:43;;;;;;;9.07;4.60;;;;;;;23.08;55.17;101020.44;5103773;28;20253;-70
2021/06/11 05:36:11;;;;;;;6.70;4.50;;;;;;;23.38;54.22;101002.28;5104811;28;20220;-70
2021/06/11 05:38:38;;;;;;;6.60;4.57;;;;;;;23.61;54.14;101005.94;5098345;27;20624;-71
2021/06/11 05:41:06;;;;;;;7.33;4.57;;;;;;;23.71;54.89;101006.53;5104798;27;20196;-71
2021/06/11 05:43:36;;;;;;;7.63;4.10;;;;;;;23.80;54.60;101005.44;5108203;28;20642;-70
2021/06/11 05:46:04;;;;;;;5.03;4.50;;;;;;;24.15;53.48;101014.06;5107688;28;20190;-70
2021/06/11 05:48:31;;;;;;;5.00;4.50;;;;;;;24.22;53.79;101009.53;5101455;27;20208;-70
2021/06/11 05:50:59;;;;;;;7.00;5.25;;;;;;;24.64;52.23;101008.09;5103190;27;20200;-70
2021/06/11 05:53:26;;;;;;;7.35;5.35;;;;;;;24.86;51.86;101001.66;5101627;27;20245;-70
2021/06/11 05:55:56;;;;;;;10.02;4.95;;;;;;;25.11;49.91;100973.88;5103499;27;20248;-71
2021/06/11 05:58:23;;;;;;;6.68;4.70;;;;;;;25.29;50.48;100996.28;5105635;27;20203;-70
2021/06/11 06:00:52;;;;;;;8.57;4.40;;;;;;;25.26;50.26;101010.44;5103698;27;20231;-71
2021/06/11 06:03:20;;;;;;;4.13;3.70;;;;;;;25.53;50.76;101009.69;5103195;27;20202;-71
2021/06/11 06:05:48;;;;;;;4.70;3.72;;;;;;;25.68;50.07;101012.41;5103126;27;20709;-71
2021/06/11 06:08:17;;;;;;;4.68;3.83;;;;;;;25.94;50.03;101009.91;5103643;27;20208;-71
2021/06/11 06:10:44;;;;;;;6.63;4.30;;;;;;;25.85;49.47;101018.50;5104779;27;20192;-71
2021/06/11 06:13:12;;;;;;;6.03;4.22;;;;;;;26.19;48.81;101015.84;5103002;27;20682;-71
2021/06/11 06:15:43;;;;;;;5.57;4.18;;;;;;;26.30;48.69;101007.03;5103295;27;20621;-71
2021/06/11 06:18:13;;;;;;;4.65;3.85;;;;;;;26.47;48.38;101010.38;5102354;27;20211;-71
2021/06/11 06:20:41;;;;;;;5.20;4.15;;;;;;;26.83;46.41;101003.81;5105287;27;20670;-71
2021/06/11 06:23:08;;;;;;;4.50;3.55;;;;;;;26.98;46.75;100987.13;5101473;28;20621;-71
2021/06/11 06:25:36;;;;;;;6.38;3.20;;;;;;;27.18;46.19;101010.16;5108298;27;20200;-71
2021/06/11 06:28:05;;;;;;;3.90;2.80;;;;;;;27.30;45.34;101008.50;5102577;27;20860;-71
2021/06/11 06:30:32;;;;;;;2.75;2.55;;;;;;;27.67;44.62;101007.16;5106507;28;20208;-70
2021/06/11 06:33:00;;;;;;;3.58;2.35;;;;;;;27.98;44.26;100998.28;5101628;27;20204;-70
2021/06/11 06:35:29;;;;;;;3.60;2.25;;;;;;;27.49;44.48;100993.91;5102784;27;20245;-71
2021/06/11 06:37:57;;;;;;;5.78;2.50;;;;;;;27.81;43.65;100994.19;5100271;27;20214;-72
2021/06/11 06:40:27;;;;;;;2.40;2.20;;;;;;;27.40;43.64;101000.69;5104179;27;20208;-71
2021/06/11 06:42:54;;;;;;;11.55;2.05;;;;;;;27.84;43.79;101000.16;5099538;28;20291;-70
2021/06/11 06:45:22;;;;;;;4.38;2.65;;;;;;;28.23;42.84;101006.78;5106130;27;20211;-72
2021/06/11 06:47:52;;;;;;;3.30;2.13;;;;;;;28.59;42.04;101003.56;5105374;28;20204;-72
2021/06/11 06:50:21;;;;;;;2.63;1.90;;;;;;;28.19;42.29;100997.22;5104962;28;20196;-72
2021/06/11 06:52:53;;;;;;;2.58;2.13;;;;;;;27.96;42.89;100999.53;5104601;28;20215;-72
2021/06/11 06:55:21;;;;;;;2.35;1.63;;;;;;;27.90;43.21;100992.97;5106647;28;20196;-70
2021/06/11 06:57:48;;;;;;;2.92;2.10;;;;;;;27.82;42.71;100999.50;5104332;27;20283;-70
2021/06/11 07:00:17;;;;;;;2.05;1.90;;;;;;;28.62;41.56;100994.84;5103244;27;20208;-70
2021/06/11 07:02:45;;;;;;;2.10;1.90;;;;;;;28.80;41.55;100998.84;5099980;27;20192;-71
2021/06/11 07:05:15;;;;;;;1.80;1.70;;;;;;;28.96;41.59;100998.38;5100812;27;20683;-72
2021/06/11 07:07:42;;;;;;;2.83;2.00;;;;;;;29.17;41.59;101003.63;5103821;27;20200;-72
2021/06/11 07:10:12;;;;;;;1.90;1.80;;;;;;;29.26;41.12;100980.16;5101240;27;20680;-71
2021/06/11 07:12:42;;;;;;;3.08;1.90;;;;;;;29.55;41.14;100998.13;5100318;27;20200;-71
2021/06/11 07:15:11;;;;;;;2.90;1.92;;;;;;;29.12;41.33;100997.06;5102679;27;20239;-71
2021/06/11 07:17:39;;;;;;;2.40;1.70;;;;;;;29.37;41.08;101000.72;5100808;27;20211;-71
2021/06/11 07:20:08;;;;;;;2.00;1.80;;;;;;;29.79;39.44;100996.47;5115991;27;20206;-72
2021/06/11 07:22:37;;;;;;;2.20;2.00;;;;;;;29.90;39.62;100984.66;5102665;28;20188;-71
2021/06/11 07:25:06;;;;;;;2.10;1.90;;;;;;;30.18;39.45;101000.03;5105912;28;20626;-71
2021/06/11 07:27:35;;;;;;;2.15;1.70;;;;;;;30.06;39.26;100982.44;5100176;27;20192;-69
2021/06/11 07:30:06;;;;;;;1.65;1.48;;;;;;;30.04;39.76;100988.22;5103565;28;20200;-69
2021/06/11 07:32:40;;;;;;;2.00;1.80;;;;;;;29.93;39.40;100981.44;5102134;27;20272;-68
2021/06/11 07:35:08;;;;;;;1.83;1.70;;;;;;;30.04;38.56;100990.16;5102856;28;20675;-70
2021/06/11 07:37:36;;;;;;;1.75;1.65;;;;;;;30.38;38.88;100986.84;5103008;28;20526;-68
2021/06/11 07:40:06;;;;;;;2.30;1.67;;;;;;;30.59;37.61;100988.31;5103952;28;20191;-68
2021/06/11 07:42:37;;;;;;;1.67;1.58;;;;;;;30.68;37.72;100964.78;5119809;27;20200;-69
2021/06/11 07:45:06;;;;;;;1.98;1.67;;;;;;;30.88;37.03;100990.34;5103307;27;20192;-68
2021/06/11 07:47:34;;;;;;;2.92;1.55;;;;;;;30.44;37.95;100990.63;5102822;27;20591;-68
2021/06/11 07:50:02;;;;;;;1.70;1.60;;;;;;;31.04;36.89;100993.59;5101940;28;20204;-69
2021/06/11 07:52:31;;;;;;;7.25;1.67;;;;;;;30.82;37.33;100976.56;5103474;28;20203;-69
2021/06/11 07:54:58;;;;;;;1.40;1.40;;;;;;;31.31;36.78;101000.53;5104397;28;20257;-69
2021/06/11 07:57:26;;;;;;;1.30;1.30;;;;;;;31.70;36.51;101001.03;5099144;28;20594;-69
2021/06/11 07:59:55;;;;;;;1.30;1.20;;;;;;;31.87;35.69;100992.91;5100648;27;20203;-69
2021/06/11 08:02:22;;;;;;;1.80;1.20;;;;;;;31.49;36.59;100977.41;5102345;28;20206;-69
2021/06/11 08:04:50;;;;;;;4.32;1.40;;;;;;;31.54;36.68;100991.47;5103466;28;20279;-70
2021/06/11 08:07:17;;;;;;;1.52;1.10;;;;;;;32.03;36.02;100992.22;5102613;28;20199;-70
2021/06/11 08:09:45;;;;;;;1.33;1.23;;;;;;;32.01;36.59;100983.25;5102681;28;20200;-70
2021/06/11 08:12:14;;;;;;;2.53;1.65;;;;;;;31.85;36.97;100976.47;5104267;28;21020;-70
2021/06/11 08:14:41;;;;;;;1.50;1.40;;;;;;;32.17;36.40;100977.00;5100644;27;20247;-69
2021/06/11 08:17:10;;;;;;;2.30;1.60;;;;;;;32.18;36.16;100984.25;5104572;28;20725;-69
2021/06/11 08:19:38;;;;;;;1.52;1.40;;;;;;;32.26;35.98;100977.53;5105257;27;20694;-69
2021/06/11 08:22:06;;;;;;;2.63;1.58;;;;;;;32.46;35.48;100957.69;5100089;27;20663;-69
2021/06/11 08:24:33;;;;;;;1.50;1.40;;;;;;;32.19;35.68;100976.78;5115070;27;20200;-70
2021/06/11 08:27:01;;;;;;;3.45;1.50;;;;;;;32.46;36.00;100978.00;5103240;28;20695;-70
2021/06/11 08:29:29;;;;;;;1.20;1.20;;;;;;;32.58;35.34;100964.94;5105717;28;20659;-70
2021/06/11 08:31:57;;;;;;;1.50;1.40;;;;;;;32.77;35.25;100973.97;5106105;28;20204;-70
2021/06/11 08:34:26;;;;;;;2.08;1.40;;;;;;;32.93;34.97;100958.47;5099036;28;20198;-70
2021/06/11 08:36:54;;;;;;;1.65;1.55;;;;;;;32.42;35.81;100960.94;5105920;28;20503;-70
2021/06/11 08:39:22;;;;;;;2.95;1.35;;;;;;;32.45;35.76;100956.84;5106951;28;20280;-68
2021/06/11 08:41:50;;;;;;;1.58;1.48;;;;;;;32.32;36.73;100957.09;5096923;28;20226;-70
2021/06/11 08:44:19;;;;;;;1.67;1.42;;;;;;;32.44;36.80;100955.13;5105778;28;20195;-70
2021/06/11 08:46:48;;;;;;;1.50;1.40;;;;;;;32.32;36.50;100951.53;5106458;28;20818;-68
2021/06/11 08:49:16;;;;;;;1.45;1.40;;;;;;;32.62;36.21;100954.16;5107789;28;20694;-68
2021/06/11 08:51:46;;;;;;;3.42;1.20;;;;;;;32.50;35.91;100950.56;5104409;28;20212;-69
2021/06/11 08:54:14;;;;;;;1.50;1.40;;;;;;;32.67;35.03;100929.22;5105088;28;20207;-70
2021/06/11 08:56:42;;;;;;;1.30;1.30;;;;;;;32.96;35.43;100949.63;5105630;28;20432;-70
2021/06/11 08:59:11;;;;;;;1.60;1.50;;;;;;;32.51;36.00;100952.25;5104754;27;20196;-69
2021/06/11 09:01:39;;;;;;;1.50;1.23;;;;;;;32.50;35.25;100917.19;5100922;28;20716;-69
2021/06/11 09:04:12;;;;;;;1.30;1.30;;;;;;;32.63;36.40;100944.72;5121402;27;20480;-69
2021/06/11 09:06:39;;;;;;;1.63;1.20;;;;;;;33.04;35.53;100938.94;5105688;28;20191;-68
2021/06/11 09:09:09;;;;;;;1.45;1.38;;;;;;;33.06;35.34;100946.19;5104538;28;20217;-69
2021/06/11 09:11:37;;;;;;;1.60;1.50;;;;;;;32.88;35.41;100942.50;5104040;28;20210;-69
2021/06/11 09:14:07;;;;;;;1.52;1.42;;;;;;;32.69;35.30;100944.56;5105225;28;20598;-69
2021/06/11 09:16:43;;;;;;;1.48;1.38;;;;;;;32.00;36.18;100928.75;5124871;27;20211;-69
2021/06/11 09:19:13;;;;;;;1.38;1.27;;;;;;;32.28;36.03;100942.81;5123085;27;20207;-69
2021/06/11 09:21:43;;;;;;;1.10;1.10;;;;;;;32.21;36.08;100921.75;5110683;28;20247;-70
2021/06/11 09:24:23;;;;;;;1.27;1.27;;;;;;;32.45;36.07;100931.81;5109819;28;20654;-68
2021/06/11 09:27:08;;;;;;;1.40;1.30;;;;;;;32.48;36.51;100930.47;5122189;27;20226;-70
2021/06/11 09:29:38;;;;;;;1.35;1.25;;;;;;;32.55;36.36;100926.47;5102656;28;20227;-69
2021/06/11 09:32:21;;;;;;;2.78;1.38;;;;;;;32.52;36.68;100926.97;5108194;28;20196;-69
2021/06/11 09:34:51;;;;;;;2.58;1.23;;;;;;;32.39;36.53;100928.06;5107422;28;20230;-69
2021/06/11 09:37:22;;;;;;;1.30;1.27;;;;;;;32.31;36.28;100931.22;5104753;28;20227;-69
2021/06/11 09:39:53;;;;;;;1.52;1.40;;;;;;;32.25;36.27;100926.63;5107888;28;20214;-70
2021/06/11 09:42:23;;;;;;;1.15;1.15;;;;;;;32.24;36.49;100924.91;5106876;27;20706;-70
2021/06/11 09:44:56;;;;;;;1.58;1.27;;;;;;;32.40;36.25;100924.19;5109140;28;20196;-70
2021/06/11 09:47:35;;;;;;;1.33;1.23;;;;;;;32.54;35.77;100927.56;5107228;28;20600;-69
2021/06/11 09:50:07;;;;;;;5.60;1.25;;;;;;;32.31;36.04;100925.66;5106955;28;20207;-69
2021/06/11 09:52:50;;;;;;;2.33;1.17;;;;;;;31.90;37.62;100909.91;5108479;28;20650;-69
2021/06/11 09:55:28;;;;;;;1.73;1.27;;;;;;;31.49;37.49;100919.09;5101172;28;20199;-69
2021/06/11 09:58:07;;;;;;;2.05;1.42;;;;;;;32.08;36.61;100903.38;5097619;28;20214;-69
2021/06/11 10:00:36;;;;;;;1.45;1.20;;;;;;;32.47;35.75;100918.50;5094675;28;20204;-70
2021/06/11 10:03:11;;;;;;;1.30;1.20;;;;;;;31.81;35.98;100914.97;5107026;28;20203;-70
2021/06/11 10:05:40;;;;;;;1.40;1.30;;;;;;;32.19;36.46;100926.72;5107491;28;20192;-69
2021/06/11 10:08:11;;;;;;;1.33;1.25;;;;;;;31.96;36.58;100906.16;5108343;28;20311;-69
2021/06/11 10:10:43;;;;;;;1.33;1.23;;;;;;;32.03;36.45;100904.09;5107416;28;20322;-70
2021/06/11 10:13:12;;;;;;;2.03;1.30;;;;;;;31.91;36.77;100871.84;5106120;28;20545;-69
2021/06/11 10:15:40;;;;;;;1.48;1.05;;;;;;;31.88;36.49;100903.75;5107205;28;20200;-70
2021/06/11 10:18:10;;;;;;;1.13;1.13;;;;;;;31.55;36.81;100876.50;5105204;28;20758;-70
2021/06/11 10:20:38;;;;;;;1.20;1.20;;;;;;;31.72;37.28;100899.72;5105590;27;20203;-69
2021/06/11 10:23:08;;;;;;;1.52;1.20;;;;;;;31.90;36.86;100895.19;5105934;27;20195;-70
2021/06/11 10:25:40;;;;;;;2.97;1.20;;;;;;;32.13;36.58;100895.16;5106369;28;20203;-70
2021/06/11 10:28:13;;;;;;;2.67;1.40;;;;;;;31.58;37.11;100886.28;5117960;27;20196;-70
2021/06/11 10:30:41;;;;;;;1.17;1.00;;;;;;;31.62;37.16;100876.38;5107179;28;20202;-70
2021/06/11 10:33:09;;;;;;;1.02;1.02;;;;;;;31.41;37.13;100888.91;5107519;28;20231;-69
2021/06/11 10:35:45;;;;;;;1.10;1.10;;;;;;;31.33;37.05;100890.09;5106875;28;20603;-69
2021/06/11 10:38:31;;;;;;;1.30;1.20;;;;;;;31.25;37.85;100892.38;5106055;28;20626;-69
2021/06/11 10:41:01;;;;;;;1.40;1.30;;;;;;;30.88;37.89;100886.84;5105268;27;20197;-69
2021/06/11 10:43:36;;;;;;;1.33;1.27;;;;;;;30.41;38.94;100874.63;5105496;28;20215;-69
2021/06/11 10:46:05;;;;;;;1.20;1.17;;;;;;;29.92;39.89;100870.84;5105450;28;20211;-69
2021/06/11 10:49:00;;;;;;;1.27;1.20;;;;;;;30.01;39.81;100879.75;5107698;28;20638;-70
2021/06/11 10:51:35;;;;;;;2.25;1.38;;;;;;;30.14;39.82;100876.84;5104500;28;20199;-69
2021/06/11 10:54:26;;;;;;;1.20;1.20;;;;;;;30.03;40.25;100883.16;5105942;28;20739;-69
2021/06/11 10:57:15;;;;;;;1.50;1.40;;;;;;;29.80;39.80;100878.22;5100663;28;20740;-69
2021/06/11 10:59:47;;;;;;;2.65;1.40;;;;;;;29.43;40.21;100871.69;5101058;28;20738;-70
2021/06/11 11:02:16;;;;;;;2.03;1.50;;;;;;;29.31;40.44;100868.78;5099232;27;20208;-70
2021/06/11 11:04:48;;;;;;;1.75;1.65;;;;;;;29.41;40.53;100873.84;5108484;28;20203;-70
2021/06/11 11:07:32;;;;;;;3.15;2.85;;;;;;;29.49;40.84;100859.75;5104765;28;20215;-69
2021/06/11 11:10:03;;;;;;;2.78;1.58;;;;;;;29.11;40.82;100860.63;5103158;28;20218;-69
2021/06/11 11:13:00;;;;;;;2.50;1.80;;;;;;;29.25;41.25;100858.63;5104252;28;20196;-69
2021/06/11 11:15:34;;;;;;;2.00;1.80;;;;;;;29.15;41.37;100850.81;5100465;28;20200;-68
2021/06/11 11:18:03;;;;;;;2.30;2.10;;;;;;;29.05;41.55;100851.28;5104904;28;20216;-69
2021/06/11 11:20:33;;;;;;;2.58;2.38;;;;;;;29.28;41.31;100850.72;5106650;28;20654;-70
2021/06/11 11:23:04;;;;;;;2.00;1.90;;;;;;;29.13;41.36;100850.19;5094503;28;20203;-70
2021/06/11 11:25:33;;;;;;;3.83;1.92;;;;;;;29.02;41.53;100826.00;5107674;28;20522;-68
2021/06/11 11:28:01;;;;;;;1.70;1.60;;;;;;;28.95;41.54;100852.84;5108130;28;20292;-69
2021/06/11 11:30:29;;;;;;;1.92;1.60;;;;;;;28.64;41.54;100848.94;5098043;28;20547;-69
2021/06/11 11:33:00;;;;;;;1.83;1.70;;;;;;;28.64;41.83;100814.91;5104981;27;20222;-67
2021/06/11 11:35:29;;;;;;;1.67;1.52;;;;;;;28.27;43.15;100833.16;5108457;28;20200;-70
2021/06/11 11:37:56;;;;;;;2.75;1.48;;;;;;;28.16;43.04;100842.91;5106387;28;20322;-68